createdAt,value
2022-10-19T00:01:39.832Z,6.59
2022-10-19T00:04:09.126Z,6.57
2022-10-19T00:06:38.247Z,6.54
2022-10-19T00:09:09.166Z,6.52
2022-10-19T00:11:40.369Z,6.48
2022-10-19T00:14:11.326Z,6.45
2022-10-19T00:16:40.858Z,6.43
2022-10-19T00:19:12.484Z,6.40
2022-10-19T00:21:41.954Z,6.38
2022-10-19T00:24:13.241Z,6.36
2022-10-19T00:26:43.132Z,6.30
2022-10-19T00:29:13.604Z,6.27
2022-10-19T00:31:43.198Z,6.26
2022-10-19T00:34:12.463Z,6.25
2022-10-19T00:36:42.216Z,6.24
2022-10-19T00:39:13.167Z,6.21
2022-10-19T00:41:42.983Z,6.18
2022-10-19T00:44:16.325Z,6.16
2022-10-19T00:46:46.345Z,6.13
2022-10-19T00:49:25.709Z,6.09
2022-10-19T00:51:57.508Z,6.07
2022-10-19T00:54:26.804Z,6.04
2022-10-19T00:56:57.046Z,5.99
2022-10-19T00:59:27.743Z,5.95
2022-10-19T01:01:57.122Z,5.91
2022-10-19T01:04:28.193Z,5.86
2022-10-19T01:06:59.369Z,5.81
2022-10-19T01:09:28.952Z,5.78
2022-10-19T01:12:18.880Z,5.75
2022-10-19T01:14:59.957Z,5.70
2022-10-19T01:17:42.223Z,5.65
2022-10-19T01:20:14.892Z,5.56
2022-10-19T01:23:04.998Z,5.48
2022-10-19T01:25:34.534Z,5.42
2022-10-19T01:28:15.753Z,5.36
2022-10-19T01:31:00.484Z,5.32
2022-10-19T01:33:33.906Z,5.28
2022-10-19T01:36:21.361Z,5.25
2022-10-19T01:38:57.033Z,5.22
2022-10-19T01:41:31.577Z,5.21
2022-10-19T01:44:24.558Z,5.20
2022-10-19T01:46:56.146Z,5.20
2022-10-19T01:49:31.210Z,5.19
2022-10-19T01:52:02.810Z,5.19
2022-10-19T01:54:34.997Z,5.19
2022-10-19T01:57:06.537Z,5.19
2022-10-19T01:59:37.191Z,5.18
2022-10-19T02:02:09.421Z,5.16
2022-10-19T02:04:39.787Z,5.12
2022-10-19T02:07:10.113Z,5.11
2022-10-19T02:09:38.558Z,5.10
2022-10-19T02:12:10.987Z,5.08
2022-10-19T02:14:43.422Z,5.06
2022-10-19T02:17:16.388Z,5.05
2022-10-19T02:19:46.419Z,5.04
2022-10-19T02:22:15.988Z,5.05
2022-10-19T02:24:44.543Z,5.05
2022-10-19T02:27:14.094Z,5.06
2022-10-19T02:29:43.678Z,5.03
2022-10-19T02:32:13.278Z,5.01
2022-10-19T02:34:42.834Z,4.98
2022-10-19T02:37:12.346Z,4.93
2022-10-19T02:39:41.863Z,4.90
2022-10-19T02:42:13.119Z,4.88
2022-10-19T02:44:59.312Z,4.89
2022-10-19T02:47:39.868Z,4.86
2022-10-19T02:50:09.934Z,4.85
2022-10-19T02:52:40.832Z,4.84
2022-10-19T02:55:10.206Z,4.82
2022-10-19T02:57:39.808Z,4.81
2022-10-19T03:00:09.611Z,4.82
2022-10-19T03:02:39.092Z,4.80
2022-10-19T03:05:08.493Z,4.76
2022-10-19T03:07:38.119Z,4.72
2022-10-19T03:10:07.779Z,4.64
2022-10-19T03:12:38.149Z,4.59
2022-10-19T03:15:08.626Z,4.59
2022-10-19T03:17:37.912Z,4.60
2022-10-19T03:20:08.097Z,4.59
2022-10-19T03:22:38.307Z,4.57
2022-10-19T03:25:07.910Z,4.53
2022-10-19T03:27:37.726Z,4.50
2022-10-19T03:30:07.844Z,4.49
2022-10-19T03:32:37.905Z,4.47
2022-10-19T03:35:07.659Z,4.45
2022-10-19T03:37:38.429Z,4.37
2022-10-19T03:40:08.865Z,4.24
2022-10-19T03:42:39.993Z,4.13
2022-10-19T03:45:10.308Z,4.11
2022-10-19T03:47:39.570Z,4.13
2022-10-19T03:50:12.090Z,4.16
2022-10-19T03:52:42.182Z,4.16
2022-10-19T03:55:12.839Z,4.14
2022-10-19T03:57:42.038Z,4.17
2022-10-19T04:00:15.008Z,4.22
2022-10-19T04:02:44.571Z,4.28
2022-10-19T04:05:13.698Z,4.31
2022-10-19T04:07:43.217Z,4.31
2022-10-19T04:10:12.748Z,4.31
2022-10-19T04:12:41.827Z,4.32
2022-10-19T04:15:11.301Z,4.33
2022-10-19T04:17:40.735Z,4.34
2022-10-19T04:20:10.400Z,4.35
2022-10-19T04:22:39.917Z,4.35
2022-10-19T04:25:10.033Z,4.40
2022-10-19T04:27:39.569Z,4.40
2022-10-19T04:30:08.937Z,4.40
2022-10-19T04:32:38.447Z,4.40
2022-10-19T04:35:07.971Z,4.39
2022-10-19T04:37:37.069Z,4.40
2022-10-19T04:40:09.441Z,4.38
2022-10-19T04:42:43.803Z,4.39
2022-10-19T04:45:12.973Z,4.48
2022-10-19T04:47:44.549Z,4.57
2022-10-19T04:50:14.336Z,4.63
2022-10-19T04:52:45.623Z,4.64
2022-10-19T04:55:15.078Z,4.61
2022-10-19T04:57:44.559Z,4.59
2022-10-19T05:00:13.384Z,4.54
2022-10-19T05:02:45.122Z,4.50
2022-10-19T05:05:14.412Z,4.48
2022-10-19T05:07:44.336Z,4.47
2022-10-19T05:10:13.939Z,4.47
2022-10-19T05:12:43.937Z,4.49
2022-10-19T05:15:13.107Z,4.52
2022-10-19T05:17:42.414Z,4.53
2022-10-19T05:20:11.924Z,4.55
2022-10-19T05:22:42.501Z,4.57
2022-10-19T05:25:11.631Z,4.61
2022-10-19T05:27:40.757Z,4.63
2022-10-19T05:30:10.663Z,4.63
2022-10-19T05:32:40.241Z,4.67
2022-10-19T05:35:09.463Z,4.71
2022-10-19T05:37:38.966Z,4.79
2022-10-19T05:40:09.732Z,4.89
2022-10-19T05:42:38.890Z,4.99
2022-10-19T05:45:08.424Z,5.08
2022-10-19T05:47:38.227Z,5.17
2022-10-19T05:50:07.971Z,5.25
2022-10-19T05:52:36.694Z,5.33
2022-10-19T05:55:06.090Z,5.37
2022-10-19T05:57:35.668Z,5.44
2022-10-19T06:00:05.111Z,5.53
2022-10-19T06:02:41.060Z,5.66
2022-10-19T06:05:10.773Z,5.78
2022-10-19T06:07:40.515Z,5.88
2022-10-19T06:10:10.662Z,5.99
2022-10-19T06:12:42.389Z,6.07
2022-10-19T06:15:11.957Z,6.18
2022-10-19T06:17:41.580Z,6.31
2022-10-19T06:20:11.290Z,6.48
2022-10-19T06:22:40.767Z,6.63
2022-10-19T06:25:10.320Z,6.77
2022-10-19T06:27:39.836Z,6.92
2022-10-19T06:30:09.590Z,7.09
2022-10-19T06:32:38.861Z,7.23
2022-10-19T06:35:08.086Z,7.38
2022-10-19T06:37:37.215Z,7.54
2022-10-19T06:40:07.306Z,7.70
2022-10-19T06:42:39.678Z,7.82
2022-10-19T06:45:09.817Z,7.99
2022-10-19T06:47:39.224Z,8.16
2022-10-19T06:50:09.177Z,8.33
2022-10-19T06:52:38.575Z,8.51
2022-10-19T06:55:07.610Z,8.66
2022-10-19T06:57:37.080Z,8.83
2022-10-19T07:00:07.182Z,8.94
2022-10-19T07:02:36.353Z,9.08
2022-10-19T07:05:07.001Z,9.16
2022-10-19T07:07:37.215Z,9.31
2022-10-19T07:10:08.592Z,9.59
2022-10-19T07:12:37.793Z,9.77
2022-10-19T07:15:07.240Z,10.05
2022-10-19T07:17:38.346Z,10.29
2022-10-19T07:20:07.764Z,10.39
2022-10-19T07:22:36.947Z,10.45
2022-10-19T07:25:06.285Z,10.52
2022-10-19T07:27:37.866Z,10.60
2022-10-19T07:30:07.378Z,10.68
2022-10-19T07:32:36.610Z,10.74
2022-10-19T07:35:06.040Z,10.82
2022-10-19T07:37:35.519Z,10.92
2022-10-19T07:40:05.040Z,10.96
2022-10-19T07:42:34.515Z,10.97
2022-10-19T07:45:04.103Z,11.07
2022-10-19T07:47:34.638Z,11.27
2022-10-19T07:50:04.090Z,11.58
2022-10-19T07:52:36.701Z,11.87
2022-10-19T07:55:07.597Z,12.08
2022-10-19T07:57:37.018Z,12.39
2022-10-19T08:00:06.471Z,12.72
2022-10-19T08:02:59.670Z,12.98
2022-10-19T08:05:34.065Z,13.03
2022-10-19T08:08:04.237Z,13.06
2022-10-19T08:10:33.601Z,13.13
2022-10-19T08:13:03.143Z,13.35
2022-10-19T08:15:32.910Z,13.62
2022-10-19T08:18:02.183Z,13.79
2022-10-19T08:20:31.629Z,13.87
2022-10-19T08:23:02.550Z,14.04
2022-10-19T08:25:32.218Z,14.44
2022-10-19T08:28:01.359Z,14.83
2022-10-19T08:30:30.884Z,15.00
2022-10-19T08:33:00.543Z,15.04
2022-10-19T08:35:30.955Z,15.05
2022-10-19T08:38:02.775Z,15.14
2022-10-19T09:11:14.233Z,17.07
2022-10-19T09:14:04.214Z,17.46
2022-10-19T09:16:36.394Z,17.80
2022-10-19T09:19:13.371Z,17.91
2022-10-19T09:21:47.687Z,18.18
2022-10-19T09:24:40.300Z,18.34
2022-10-19T09:27:16.770Z,18.32
2022-10-19T09:29:48.837Z,18.18
2022-10-19T09:32:26.017Z,17.99
2022-10-19T09:34:57.359Z,17.83
2022-10-19T09:37:27.001Z,17.70
2022-10-19T09:39:56.925Z,17.58
2022-10-19T09:42:30.686Z,17.47
2022-10-19T09:45:02.084Z,17.40
2022-10-19T09:47:36.581Z,17.26
2022-10-19T09:50:25.655Z,17.18
2022-10-19T09:52:54.175Z,17.09
2022-10-19T09:55:26.195Z,17.02
2022-10-19T09:58:03.039Z,16.94
2022-10-19T10:00:37.870Z,16.84
2022-10-19T10:03:08.074Z,16.75
2022-10-19T10:05:41.434Z,16.70
2022-10-19T10:08:15.956Z,16.66
2022-10-19T10:10:46.633Z,16.63
2022-10-19T10:13:20.198Z,16.61
2022-10-19T10:15:55.127Z,16.60
2022-10-19T10:18:25.843Z,16.58
2022-10-19T10:21:03.107Z,16.59
2022-10-19T10:23:36.679Z,16.60
2022-10-19T10:26:16.647Z,16.65
2022-10-19T10:28:50.685Z,16.71
2022-10-19T10:31:25.129Z,16.75
2022-10-19T10:33:55.970Z,16.83
2022-10-19T10:36:27.862Z,16.93
2022-10-19T10:39:05.513Z,16.95
2022-10-19T10:41:41.128Z,16.95
2022-10-19T10:44:39.612Z,16.95
2022-10-19T10:47:14.652Z,16.96
2022-10-19T10:49:44.943Z,16.98
2022-10-19T10:52:18.341Z,16.97
2022-10-19T10:55:10.790Z,16.98
2022-10-19T10:57:43.867Z,17.01
2022-10-19T11:00:19.221Z,17.12
2022-10-19T11:03:02.634Z,17.18
2022-10-19T11:05:34.055Z,17.25
2022-10-19T11:08:17.323Z,17.42
2022-10-19T11:11:01.271Z,17.52
2022-10-19T11:13:34.454Z,17.56
2022-10-19T11:16:16.092Z,17.60
2022-10-19T11:18:54.295Z,17.63
2022-10-19T11:21:32.770Z,17.67
2022-10-19T11:24:31.811Z,17.67
2022-10-19T11:27:06.998Z,17.68
2022-10-19T11:29:58.214Z,17.78
2022-10-19T11:32:33.852Z,17.77
2022-10-19T11:35:18.583Z,17.77
2022-10-19T11:38:18.449Z,17.92
2022-10-19T11:41:13.284Z,18.20
2022-10-19T11:43:44.747Z,18.62
2022-10-19T11:46:38.658Z,18.81
2022-10-19T11:49:34.470Z,18.82
2022-10-19T11:52:18.630Z,18.69
2022-10-19T11:54:52.473Z,18.54
2022-10-19T11:57:42.016Z,18.38
2022-10-19T12:00:15.146Z,18.23
2022-10-19T12:03:20.741Z,18.13
2022-10-19T12:05:52.820Z,18.04
2022-10-19T12:08:22.022Z,17.98
2022-10-19T12:11:24.241Z,17.93
2022-10-19T12:14:01.217Z,17.80
2022-10-19T12:16:40.217Z,17.71
2022-10-19T12:19:16.293Z,17.63
2022-10-19T12:21:46.595Z,17.55
2022-10-19T12:24:19.955Z,17.49
2022-10-19T12:26:49.744Z,17.41
2022-10-19T12:29:26.119Z,17.31
2022-10-19T12:31:56.746Z,17.23
2022-10-19T12:34:25.928Z,17.20
2022-10-19T12:37:03.599Z,17.14
2022-10-19T12:39:40.943Z,17.10
2022-10-19T12:42:18.431Z,17.03
2022-10-19T12:45:06.122Z,16.99
2022-10-19T12:47:36.158Z,16.96
2022-10-19T12:50:06.001Z,16.95
2022-10-19T12:52:37.328Z,16.91
2022-10-19T12:55:15.846Z,16.87
2022-10-19T12:57:48.993Z,16.84
2022-10-19T13:00:30.745Z,16.81
2022-10-19T13:03:27.693Z,16.78
2022-10-19T13:06:08.349Z,16.75
2022-10-19T13:08:46.476Z,16.69
2022-10-19T13:11:17.681Z,16.66
2022-10-19T13:14:00.625Z,16.66
2022-10-19T13:16:30.532Z,16.66
2022-10-19T13:19:00.554Z,16.62
2022-10-19T13:21:48.964Z,16.61
2022-10-19T13:24:30.048Z,16.59
2022-10-19T13:27:05.812Z,16.54
2022-10-19T13:29:40.934Z,16.43
2022-10-19T13:32:30.651Z,16.35
2022-10-19T13:35:17.816Z,16.26
2022-10-19T13:38:08.365Z,16.17
2022-10-19T13:40:39.346Z,16.12
2022-10-19T13:43:29.808Z,16.05
2022-10-19T13:46:18.052Z,16.01
2022-10-19T13:49:00.024Z,15.94
2022-10-19T13:51:29.320Z,15.85
2022-10-19T13:54:18.910Z,15.75
2022-10-19T13:56:54.134Z,15.65
2022-10-19T13:59:31.805Z,15.59
2022-10-19T14:02:21.293Z,15.51
2022-10-19T14:05:10.892Z,15.39
2022-10-19T14:07:43.012Z,15.26
2022-10-19T14:10:17.864Z,15.21
2022-10-19T14:12:47.472Z,15.16
2022-10-19T14:15:21.734Z,15.14
2022-10-19T14:17:50.992Z,15.12
2022-10-19T14:20:28.558Z,15.10
2022-10-19T14:22:57.764Z,15.04
2022-10-19T14:25:28.255Z,14.97
2022-10-19T14:28:01.606Z,14.90
2022-10-19T14:30:35.629Z,14.87
2022-10-19T14:33:10.966Z,14.83
2022-10-19T14:35:42.019Z,14.77
2022-10-19T14:38:17.443Z,14.74
2022-10-19T14:40:45.948Z,14.71
2022-10-19T14:43:42.058Z,14.68
2022-10-19T14:46:17.790Z,14.65
2022-10-19T14:48:49.470Z,14.62
2022-10-19T14:51:18.737Z,14.62
2022-10-19T14:53:53.915Z,14.61
2022-10-19T14:56:34.894Z,14.59
2022-10-19T14:59:20.555Z,14.57
2022-10-19T15:01:51.730Z,14.55
2022-10-19T15:04:26.644Z,14.54
2022-10-19T15:06:56.240Z,14.53
2022-10-19T15:09:36.949Z,14.48
2022-10-19T15:12:16.214Z,14.41
2022-10-19T15:14:46.485Z,14.36
2022-10-19T15:17:26.017Z,14.30
2022-10-19T15:19:58.755Z,14.23
2022-10-19T15:22:35.881Z,14.17
2022-10-19T15:25:10.555Z,14.11
2022-10-19T15:27:42.293Z,14.06
2022-10-19T15:30:21.591Z,14.00
2022-10-19T15:32:53.644Z,13.95
2022-10-19T15:35:45.200Z,13.89
2022-10-19T15:38:15.046Z,13.84
2022-10-19T15:40:46.705Z,13.76
2022-10-19T15:43:45.753Z,13.69
2022-10-19T15:46:40.716Z,13.62
2022-10-19T15:49:12.843Z,13.56
2022-10-19T15:51:49.022Z,13.51
2022-10-19T15:54:19.498Z,13.46
2022-10-19T15:56:52.495Z,13.42
2022-10-19T15:59:24.143Z,13.37
2022-10-19T16:01:56.135Z,13.32
2022-10-19T16:04:25.830Z,13.26
2022-10-19T16:06:55.560Z,13.23
2022-10-19T16:09:27.052Z,13.19
2022-10-19T16:11:57.838Z,13.15
2022-10-19T16:14:30.852Z,13.10
2022-10-19T16:17:03.009Z,13.05
2022-10-19T16:19:32.779Z,13.01
2022-10-19T16:22:02.699Z,12.98
2022-10-19T16:24:32.051Z,12.95
2022-10-19T16:27:01.577Z,12.90
2022-10-19T16:29:33.676Z,12.86
2022-10-19T16:32:02.205Z,12.84
2022-10-19T16:34:30.801Z,12.81
2022-10-19T16:37:02.684Z,12.79
2022-10-19T16:39:35.607Z,12.77
2022-10-19T16:42:05.642Z,12.76
2022-10-19T16:44:35.775Z,12.76
2022-10-19T16:47:06.340Z,12.76
2022-10-19T16:49:39.723Z,12.77
2022-10-19T16:52:12.308Z,12.77
2022-10-19T16:54:42.354Z,12.77
2022-10-19T16:57:11.958Z,12.79
2022-10-19T16:59:43.623Z,12.80
2022-10-19T17:02:14.284Z,12.80
2022-10-19T17:04:43.435Z,12.80
2022-10-19T17:07:13.301Z,12.81
2022-10-19T17:09:43.281Z,12.80
2022-10-19T17:12:13.333Z,12.77
2022-10-19T17:14:44.796Z,12.75
2022-10-19T17:17:13.956Z,12.75
2022-10-19T17:19:43.137Z,12.74
2022-10-19T17:22:12.419Z,12.74
2022-10-19T17:24:47.758Z,12.73
2022-10-19T17:27:16.980Z,12.72
2022-10-19T17:29:46.594Z,12.72
2022-10-19T17:32:16.817Z,12.73
2022-10-19T17:34:46.822Z,12.72
2022-10-19T17:37:15.209Z,12.72
2022-10-19T17:39:44.900Z,12.71
2022-10-19T17:42:14.939Z,12.69
2022-10-19T17:44:43.407Z,12.68
2022-10-19T17:47:13.372Z,12.66
2022-10-19T17:49:42.588Z,12.63
2022-10-19T17:52:11.929Z,12.61
2022-10-19T17:54:48.805Z,12.58
2022-10-19T17:57:30.378Z,12.56
2022-10-19T17:59:59.556Z,12.55
2022-10-19T18:02:29.349Z,12.55
2022-10-19T18:04:58.909Z,12.54
2022-10-19T18:07:28.563Z,12.52
2022-10-19T18:09:57.786Z,12.50
2022-10-19T18:12:27.286Z,12.48
2022-10-19T18:14:56.292Z,12.45
2022-10-19T18:17:27.777Z,12.43
2022-10-19T18:19:59.704Z,12.42
2022-10-19T18:22:29.390Z,12.41
2022-10-19T18:24:58.935Z,12.40
2022-10-19T18:27:28.433Z,12.38
2022-10-19T18:30:00.190Z,12.37
2022-10-19T18:32:29.754Z,12.37
2022-10-19T18:34:58.867Z,12.36
2022-10-19T18:37:28.430Z,12.35
2022-10-19T18:39:57.598Z,12.31
2022-10-19T18:42:27.169Z,12.28
2022-10-19T18:44:56.615Z,12.25
2022-10-19T18:47:26.225Z,12.21
2022-10-19T18:49:55.370Z,12.19
2022-10-19T18:52:24.892Z,12.17
2022-10-19T18:54:54.698Z,12.17
2022-10-19T18:57:23.062Z,12.14
2022-10-19T18:59:52.410Z,12.13
2022-10-19T19:02:34.638Z,12.11
2022-10-19T19:05:12.147Z,12.09
2022-10-19T19:07:41.358Z,12.06
2022-10-19T19:10:10.387Z,12.05
2022-10-19T19:12:39.711Z,12.04
2022-10-19T19:15:10.849Z,12.02
2022-10-19T19:17:40.071Z,12.00
2022-10-19T19:20:09.604Z,11.98
2022-10-19T19:22:38.781Z,11.97
2022-10-19T19:25:08.615Z,11.95
2022-10-19T19:27:39.677Z,11.92
2022-10-19T19:30:10.564Z,11.88
2022-10-19T19:32:40.626Z,11.85
2022-10-19T19:35:09.966Z,11.83
2022-10-19T19:37:39.596Z,11.81
2022-10-19T19:40:09.129Z,11.78
2022-10-19T19:42:38.746Z,11.75
2022-10-19T19:45:08.300Z,11.73
2022-10-19T19:47:37.878Z,11.68
2022-10-19T19:50:07.582Z,11.65
2022-10-19T19:52:40.226Z,11.63
2022-10-19T19:55:10.591Z,11.60
2022-10-19T19:57:39.744Z,11.57
2022-10-19T20:00:09.271Z,11.56
2022-10-19T20:02:41.294Z,11.54
2022-10-19T20:05:10.375Z,11.53
2022-10-19T20:07:39.690Z,11.50
2022-10-19T20:10:09.214Z,11.51
2022-10-19T20:12:38.682Z,11.48
2022-10-19T20:15:07.198Z,11.47
2022-10-19T20:17:36.589Z,11.46
2022-10-19T20:20:06.930Z,11.43
2022-10-19T20:22:35.351Z,11.42
2022-10-19T20:25:04.248Z,11.39
2022-10-19T20:27:37.041Z,11.39
2022-10-19T20:30:07.227Z,11.37
2022-10-19T20:32:37.100Z,11.35
2022-10-19T20:35:07.779Z,11.32
2022-10-19T20:37:37.024Z,11.28
2022-10-19T20:40:08.846Z,11.26
2022-10-19T20:42:40.786Z,11.22
2022-10-19T20:45:10.953Z,11.19
2022-10-19T20:47:40.497Z,11.18
2022-10-19T20:50:09.984Z,11.15
2022-10-19T20:52:39.358Z,11.12
2022-10-19T20:55:08.654Z,11.10
2022-10-19T20:57:38.169Z,11.07
2022-10-19T21:00:08.333Z,11.05
2022-10-19T21:02:37.748Z,11.03
2022-10-19T21:05:07.534Z,11.02
2022-10-19T21:07:36.782Z,11.00
2022-10-19T21:10:05.980Z,11.00
2022-10-19T21:12:37.255Z,10.99
2022-10-19T21:15:07.238Z,10.95
2022-10-19T21:17:36.585Z,10.93
2022-10-19T21:20:06.692Z,10.89
2022-10-19T21:22:40.923Z,10.84
2022-10-19T21:25:10.802Z,10.81
2022-10-19T21:27:40.573Z,10.78
2022-10-19T21:30:09.988Z,10.74
2022-10-19T21:32:39.518Z,10.71
2022-10-19T21:35:10.890Z,10.65
2022-10-19T21:37:39.244Z,10.59
2022-10-19T21:40:08.651Z,10.54
2022-10-19T21:42:37.923Z,10.48
2022-10-19T21:45:28.777Z,10.45
2022-10-19T21:48:00.059Z,10.42
2022-10-19T21:50:29.142Z,10.35
2022-10-19T21:52:58.317Z,10.28
2022-10-19T21:55:27.426Z,10.20
2022-10-19T21:57:57.146Z,10.13
2022-10-19T22:00:26.629Z,10.06
2022-10-19T22:02:56.066Z,10.02
2022-10-19T22:05:24.572Z,9.99
2022-10-19T22:07:52.993Z,9.94
2022-10-19T22:10:22.396Z,9.91
2022-10-19T22:12:51.643Z,9.89
2022-10-19T22:15:20.843Z,9.88
2022-10-19T22:17:50.691Z,9.87
2022-10-19T22:20:19.858Z,9.85
2022-10-19T22:22:51.531Z,9.80
2022-10-19T22:25:23.857Z,9.77
2022-10-19T22:27:53.389Z,9.71
2022-10-19T22:30:22.621Z,9.67
2022-10-19T22:32:52.093Z,9.62
2022-10-19T22:35:21.312Z,9.58
2022-10-19T22:37:50.477Z,9.54
2022-10-19T22:40:19.758Z,9.50
2022-10-19T22:42:49.269Z,9.45
2022-10-19T22:45:18.550Z,9.39
2022-10-19T22:47:47.714Z,9.35
2022-10-19T22:50:17.151Z,9.30
2022-10-19T22:52:46.293Z,9.27
2022-10-19T22:55:15.565Z,9.21
2022-10-19T22:57:44.579Z,9.18
2022-10-19T23:00:15.783Z,9.15
2022-10-19T23:02:44.996Z,9.11
2022-10-19T23:05:14.270Z,9.09
2022-10-19T23:07:43.568Z,9.07
2022-10-19T23:10:12.967Z,9.06
2022-10-19T23:12:42.315Z,9.03
2022-10-19T23:15:11.792Z,9.01
2022-10-19T23:17:41.365Z,8.99
2022-10-19T23:20:10.324Z,8.96
2022-10-19T23:22:43.406Z,8.94
2022-10-19T23:25:12.671Z,8.92
2022-10-19T23:27:43.782Z,8.90
2022-10-19T23:30:14.969Z,8.88
2022-10-19T23:32:44.392Z,8.86
2022-10-19T23:35:14.179Z,8.84
2022-10-19T23:37:43.559Z,8.83
2022-10-19T23:40:12.977Z,8.80
2022-10-19T23:42:42.325Z,8.77
2022-10-19T23:45:13.572Z,8.71
2022-10-19T23:47:42.120Z,8.66
2022-10-19T23:50:11.393Z,8.62
2022-10-19T23:52:40.814Z,8.57
2022-10-19T23:55:10.292Z,8.53
2022-10-19T23:57:41.543Z,8.46
